createdAt,value
2019-05-16T00:00:25.224Z,2.67
2019-05-16T00:02:59.084Z,2.23
2019-05-16T00:05:53.286Z,2.50
2019-05-16T00:08:30.988Z,2.80
2019-05-16T00:11:08.531Z,2.83
2019-05-16T00:13:41.589Z,3.10
2019-05-16T00:16:15.446Z,3.00
2019-05-16T00:18:49.042Z,2.80
2019-05-16T00:21:22.540Z,2.87
2019-05-16T00:23:55.785Z,2.77
2019-05-16T00:26:29.837Z,2.40
2019-05-16T00:29:08.023Z,2.93
2019-05-16T00:31:40.860Z,2.67
2019-05-16T00:34:15.209Z,2.63
2019-05-16T00:36:52.560Z,3.20
2019-05-16T00:39:27.965Z,2.30
2019-05-16T00:42:03.652Z,3.10
2019-05-16T00:44:38.737Z,2.60
2019-05-16T00:47:13.017Z,3.00
2019-05-16T00:49:47.811Z,3.00
2019-05-16T00:52:20.857Z,2.80
2019-05-16T00:54:53.901Z,3.00
2019-05-16T00:57:28.156Z,2.70
2019-05-16T01:00:03.269Z,2.70
2019-05-16T01:02:38.150Z,3.10
2019-05-16T01:05:14.373Z,3.03
2019-05-16T01:07:48.144Z,2.60
2019-05-16T01:10:22.919Z,2.80
2019-05-16T01:12:58.412Z,3.03
2019-05-16T01:15:55.022Z,2.53
2019-05-16T01:18:28.771Z,2.83
2019-05-16T01:21:04.371Z,2.70
2019-05-16T01:23:39.558Z,3.00
2019-05-16T01:26:12.843Z,2.60
2019-05-16T01:28:48.583Z,2.47
2019-05-16T01:31:21.370Z,3.00
2019-05-16T01:33:55.385Z,2.92
2019-05-16T01:36:36.608Z,2.60
2019-05-16T01:39:10.150Z,3.30
2019-05-16T01:41:42.731Z,3.50
2019-05-16T01:44:18.189Z,3.20
2019-05-16T01:46:51.151Z,3.23
2019-05-16T01:49:23.873Z,3.47
2019-05-16T01:51:57.905Z,3.47
2019-05-16T01:54:31.053Z,3.30
2019-05-16T01:57:03.767Z,3.27
2019-05-16T01:59:37.967Z,3.00
2019-05-16T02:02:10.744Z,3.07
2019-05-16T02:04:43.480Z,3.60
2019-05-16T02:07:16.042Z,3.20
2019-05-16T02:09:48.645Z,3.10
2019-05-16T02:12:21.265Z,3.00
2019-05-16T02:14:53.948Z,3.87
2019-05-16T02:17:28.818Z,3.10
2019-05-16T02:20:02.107Z,3.67
2019-05-16T02:22:35.662Z,3.13
2019-05-16T02:25:09.629Z,3.17
2019-05-16T02:27:48.849Z,2.93
2019-05-16T02:30:24.218Z,3.30
2019-05-16T02:32:56.990Z,2.77
2019-05-16T02:35:31.129Z,3.17
2019-05-16T02:38:05.455Z,3.30
2019-05-16T02:40:41.534Z,3.13
2019-05-16T02:43:15.382Z,3.00
2019-05-16T02:45:51.951Z,3.07
2019-05-16T02:48:25.086Z,3.07
2019-05-16T02:51:01.789Z,3.30
2019-05-16T02:53:34.840Z,3.03
2019-05-16T02:56:07.398Z,3.63
2019-05-16T02:58:44.840Z,3.80
2019-05-16T03:01:21.351Z,3.27
2019-05-16T03:03:55.482Z,3.60
2019-05-16T03:06:32.061Z,3.58
2019-05-16T03:09:10.907Z,3.60
2019-05-16T03:11:46.966Z,3.10
2019-05-16T03:14:24.406Z,3.20
2019-05-16T03:17:03.441Z,3.27
2019-05-16T03:19:41.786Z,3.40
2019-05-16T03:22:22.124Z,3.23
2019-05-16T03:25:01.267Z,3.20
2019-05-16T03:27:35.309Z,3.43
2019-05-16T03:30:07.961Z,2.87
2019-05-16T03:35:54.586Z,3.13
2019-05-16T03:38:30.863Z,3.47
2019-05-16T03:41:30.676Z,3.13
2019-05-16T03:44:03.842Z,3.63
2019-05-16T03:46:37.349Z,3.43
2019-05-16T03:49:11.491Z,3.60
2019-05-16T03:51:44.504Z,3.13
2019-05-16T03:54:17.089Z,3.87
2019-05-16T03:56:51.371Z,3.93
2019-05-16T03:59:24.051Z,3.33
2019-05-16T04:01:56.617Z,3.50
2019-05-16T04:04:30.897Z,3.43
2019-05-16T04:07:03.887Z,3.47
2019-05-16T04:09:36.445Z,3.27
2019-05-16T04:12:10.795Z,2.93
2019-05-16T04:14:43.718Z,3.23
2019-05-16T04:17:20.936Z,3.37
2019-05-16T04:19:54.392Z,3.40
2019-05-16T04:22:31.769Z,3.10
2019-05-16T04:25:05.319Z,3.20
2019-05-16T04:27:41.248Z,3.40
2019-05-16T04:30:17.464Z,3.90
2019-05-16T04:32:51.049Z,4.10
2019-05-16T04:35:23.893Z,4.10
2019-05-16T04:37:56.690Z,3.80
2019-05-16T04:40:31.171Z,4.33
2019-05-16T04:43:03.877Z,4.40
2019-05-16T04:45:36.467Z,3.97
2019-05-16T04:48:11.211Z,3.93
2019-05-16T04:50:44.075Z,4.00
2019-05-16T04:53:16.901Z,4.20
2019-05-16T04:55:51.627Z,3.70
2019-05-16T04:58:24.921Z,3.50
2019-05-16T05:00:57.837Z,3.30
2019-05-16T05:03:31.582Z,3.00
2019-05-16T05:06:04.550Z,3.17
2019-05-16T05:08:50.469Z,3.07
2019-05-16T05:11:31.843Z,3.00
2019-05-16T05:14:05.529Z,2.97
2019-05-16T05:16:41.106Z,2.87
2019-05-16T05:19:14.590Z,3.07
2019-05-16T05:21:47.166Z,3.40
2019-05-16T05:24:19.764Z,3.20
2019-05-16T05:26:52.461Z,3.27
2019-05-16T05:29:25.132Z,3.27
2019-05-16T05:32:03.489Z,3.10
2019-05-16T05:34:39.870Z,3.17
2019-05-16T05:37:12.784Z,3.13
2019-05-16T05:39:45.885Z,3.05
2019-05-16T05:42:19.896Z,2.92
2019-05-16T05:44:53.093Z,3.00
2019-05-16T05:47:30.498Z,3.20
2019-05-16T05:50:05.351Z,3.20
2019-05-16T05:52:40.824Z,2.90
2019-05-16T05:55:14.089Z,2.73
2019-05-16T05:57:46.777Z,3.17
2019-05-16T06:00:21.142Z,2.77
2019-05-16T06:02:53.988Z,2.90
2019-05-16T06:05:26.778Z,2.73
2019-05-16T06:08:00.283Z,3.07
2019-05-16T06:10:33.164Z,2.60
2019-05-16T06:13:05.773Z,2.80
2019-05-16T06:15:39.996Z,2.60
2019-05-16T06:18:12.642Z,2.80
2019-05-16T06:20:45.446Z,2.30
2019-05-16T06:23:20.587Z,2.40
2019-05-16T06:25:53.905Z,2.70
2019-05-16T06:28:26.483Z,1.90
2019-05-16T06:31:01.804Z,2.00
2019-05-16T06:33:35.107Z,2.00
2019-05-16T06:36:11.822Z,2.23
2019-05-16T06:38:44.810Z,2.10
2019-05-16T06:41:19.982Z,1.87
2019-05-16T06:43:53.344Z,2.10
2019-05-16T06:46:27.121Z,2.12
2019-05-16T06:48:59.740Z,2.07
2019-05-16T06:51:32.382Z,2.00
2019-05-16T06:54:05.058Z,1.90
2019-05-16T06:56:39.904Z,2.30
2019-05-16T06:59:14.699Z,2.20
2019-05-16T07:01:50.059Z,2.20
2019-05-16T07:04:26.298Z,2.07
2019-05-16T07:07:02.804Z,2.30
2019-05-16T07:09:36.043Z,1.93
2019-05-16T07:12:10.485Z,2.07
2019-05-16T07:14:46.425Z,2.43
2019-05-16T07:17:20.207Z,1.97
2019-05-16T07:19:53.048Z,2.20
2019-05-16T07:22:31.219Z,2.10
2019-05-16T07:25:04.767Z,2.17
2019-05-16T07:27:40.097Z,2.33
2019-05-16T07:30:19.791Z,2.40
2019-05-16T07:32:53.611Z,2.40
2019-05-16T07:35:31.869Z,2.40
2019-05-16T07:38:10.708Z,2.57
2019-05-16T07:40:51.172Z,2.10
2019-05-16T07:43:25.597Z,2.40
2019-05-16T07:46:00.359Z,2.07
2019-05-16T07:48:33.276Z,2.10
2019-05-16T07:51:05.803Z,1.97
2019-05-16T07:53:40.277Z,2.13
2019-05-16T07:56:14.031Z,2.37
2019-05-16T07:58:46.663Z,2.30
2019-05-16T08:01:20.040Z,2.17
2019-05-16T08:03:52.892Z,2.33
2019-05-16T08:06:26.259Z,2.13
2019-05-16T08:09:00.367Z,2.10
2019-05-16T08:11:33.009Z,2.20
2019-05-16T08:14:10.230Z,2.67
2019-05-16T08:16:44.472Z,2.10
2019-05-16T08:19:25.283Z,2.03
2019-05-16T08:22:01.054Z,2.00
2019-05-16T08:24:36.176Z,2.30
2019-05-16T08:27:12.078Z,2.60
2019-05-16T08:29:51.142Z,2.17
2019-05-16T08:32:26.233Z,2.27
2019-05-16T08:35:01.129Z,2.30
2019-05-16T08:37:42.534Z,2.30
2019-05-16T08:40:21.619Z,1.93
2019-05-16T08:42:54.323Z,2.58
2019-05-16T08:45:26.824Z,2.50
2019-05-16T08:48:00.238Z,2.60
2019-05-16T08:50:34.983Z,2.63
2019-05-16T08:53:11.893Z,2.50
2019-05-16T08:55:46.092Z,2.67
2019-05-16T08:58:22.405Z,2.72
2019-05-16T09:00:55.857Z,2.60
2019-05-16T09:03:32.083Z,2.30
2019-05-16T09:06:05.404Z,2.30
2019-05-16T09:08:38.071Z,2.10
2019-05-16T09:11:29.868Z,2.40
2019-05-16T09:14:11.829Z,2.27
2019-05-16T09:16:47.514Z,2.23
2019-05-16T09:19:22.594Z,2.63
2019-05-16T09:21:58.045Z,2.40
2019-05-16T09:24:31.025Z,2.20
2019-05-16T09:27:03.565Z,2.27
2019-05-16T09:29:36.979Z,2.07
2019-05-16T09:32:17.037Z,2.30
2019-05-16T09:34:57.952Z,2.20
2019-05-16T09:37:31.513Z,2.70
2019-05-16T09:40:06.981Z,2.20
2019-05-16T09:42:47.420Z,2.13
2019-05-16T09:45:21.902Z,2.10
2019-05-16T09:47:57.367Z,2.50
2019-05-16T09:50:30.958Z,2.33
2019-05-16T09:53:07.225Z,2.50
2019-05-16T09:55:40.364Z,2.40
2019-05-16T09:58:17.699Z,2.30
2019-05-16T10:00:51.651Z,2.00
2019-05-16T10:03:30.817Z,2.70
2019-05-16T10:06:07.708Z,1.97
2019-05-16T10:08:43.200Z,2.10
2019-05-16T10:11:18.451Z,1.97
2019-05-16T10:13:52.075Z,2.40
2019-05-16T10:16:30.436Z,1.70
2019-05-16T10:19:07.587Z,2.40
2019-05-16T10:21:41.809Z,2.20
2019-05-16T10:24:16.875Z,1.80
2019-05-16T10:26:53.942Z,2.30
2019-05-16T10:29:28.604Z,2.20
2019-05-16T10:32:01.193Z,2.30
2019-05-16T10:34:33.949Z,1.90
2019-05-16T10:37:07.302Z,2.50
2019-05-16T10:39:40.520Z,2.30
2019-05-16T10:42:24.988Z,2.70
2019-05-16T10:45:03.466Z,2.47
2019-05-16T10:47:37.117Z,2.70
2019-05-16T10:50:10.326Z,2.30
2019-05-16T10:52:42.841Z,2.33
2019-05-16T10:55:17.717Z,2.80
2019-05-16T10:57:52.493Z,2.30
2019-05-16T11:00:57.723Z,3.00
2019-05-16T11:03:48.842Z,2.60
2019-05-16T11:06:25.749Z,2.47
2019-05-16T11:09:01.513Z,3.07
2019-05-16T11:11:36.805Z,3.27
2019-05-16T11:14:11.161Z,2.80
2019-05-16T11:16:47.173Z,2.90
2019-05-16T11:19:24.434Z,2.83
2019-05-16T11:21:59.162Z,2.90
2019-05-16T11:24:33.429Z,2.85
2019-05-16T11:27:07.483Z,2.70
2019-05-16T11:29:40.396Z,3.40
2019-05-16T11:32:13.096Z,2.90
2019-05-16T11:34:47.933Z,2.90
2019-05-16T11:37:27.756Z,3.03
2019-05-16T11:40:02.404Z,2.80
2019-05-16T11:42:37.783Z,3.10
2019-05-16T11:45:16.425Z,3.23
2019-05-16T11:47:49.922Z,3.57
2019-05-16T11:50:23.966Z,3.20
2019-05-16T11:52:58.585Z,3.27
2019-05-16T11:55:35.023Z,3.43
2019-05-16T11:58:11.147Z,3.97
2019-05-16T12:00:44.370Z,3.37
2019-05-16T12:03:17.185Z,3.77
2019-05-16T12:05:49.897Z,3.90
2019-05-16T12:08:23.358Z,3.80
2019-05-16T12:10:55.921Z,3.53
2019-05-16T12:13:32.820Z,3.43
2019-05-16T12:16:07.592Z,3.50
2019-05-16T12:18:42.011Z,3.90
2019-05-16T12:21:17.857Z,3.20
2019-05-16T12:23:50.483Z,3.53
2019-05-16T12:26:28.214Z,3.07
2019-05-16T12:29:02.028Z,3.30
2019-05-16T12:31:37.148Z,3.00
2019-05-16T12:34:11.304Z,3.30
2019-05-16T12:36:47.258Z,3.50
2019-05-16T12:39:26.807Z,3.77
2019-05-16T12:42:08.421Z,3.37
2019-05-16T12:44:42.937Z,3.63
2019-05-16T12:47:16.637Z,4.07
2019-05-16T12:49:57.587Z,3.67
2019-05-16T12:52:34.055Z,3.80
2019-05-16T12:55:09.017Z,3.73
2019-05-16T12:57:43.743Z,3.77
2019-05-16T13:00:27.675Z,3.80
2019-05-16T13:03:02.692Z,4.17
2019-05-16T13:05:37.658Z,4.87
2019-05-16T13:08:12.640Z,4.53
2019-05-16T13:10:48.516Z,4.97
2019-05-16T13:13:22.891Z,4.67
2019-05-16T13:15:57.763Z,4.70
2019-05-16T13:18:32.016Z,4.63
2019-05-16T13:21:06.843Z,4.60
2019-05-16T13:23:46.741Z,4.87
2019-05-16T13:26:23.960Z,3.93
2019-05-16T13:28:59.490Z,4.90
2019-05-16T13:31:33.857Z,4.33
2019-05-16T13:34:07.749Z,4.40
2019-05-16T13:36:41.391Z,4.90
2019-05-16T13:39:17.139Z,4.63
2019-05-16T13:41:52.874Z,5.27
2019-05-16T13:44:27.634Z,4.43
2019-05-16T13:47:01.272Z,4.27
2019-05-16T13:49:38.665Z,4.80
2019-05-16T13:52:16.683Z,4.50
2019-05-16T13:54:49.403Z,4.57
2019-05-16T13:57:29.335Z,5.00
2019-05-16T14:00:03.880Z,4.17
2019-05-16T14:02:57.576Z,4.20
2019-05-16T14:05:32.758Z,4.30
2019-05-16T14:08:16.892Z,4.17
2019-05-16T14:11:02.631Z,4.27
2019-05-16T14:13:42.872Z,4.00
2019-05-16T14:16:33.753Z,3.97
2019-05-16T14:19:33.320Z,3.80
2019-05-16T14:22:07.647Z,3.90
2019-05-16T14:24:43.595Z,3.30
2019-05-16T14:27:17.951Z,4.00
2019-05-16T14:29:51.294Z,3.90
2019-05-16T14:32:25.219Z,3.77
2019-05-16T14:34:58.951Z,3.40
2019-05-16T14:37:31.871Z,3.13
2019-05-16T14:40:07.934Z,3.27
2019-05-16T14:42:40.699Z,3.57
2019-05-16T14:45:22.004Z,2.97
2019-05-16T14:47:57.851Z,2.83
2019-05-16T14:50:31.346Z,3.00
2019-05-16T14:53:09.063Z,2.87
2019-05-16T14:56:52.729Z,3.40
2019-05-16T14:59:36.367Z,3.30
2019-05-16T15:02:23.799Z,3.30
2019-05-16T15:05:30.458Z,2.70
2019-05-16T15:08:08.616Z,3.77
2019-05-16T15:10:46.744Z,3.35
2019-05-16T15:13:19.724Z,3.93
2019-05-16T15:15:56.946Z,3.93
2019-05-16T15:18:29.771Z,4.87
2019-05-16T15:21:08.492Z,4.03
2019-05-16T15:23:45.489Z,4.83
2019-05-16T15:26:27.289Z,4.65
2019-05-16T15:29:03.154Z,3.87
2019-05-16T15:31:39.580Z,4.20
2019-05-16T15:34:16.457Z,4.40
2019-05-16T15:36:50.063Z,4.30
2019-05-16T15:39:24.135Z,4.00
2019-05-16T15:42:00.376Z,3.80
2019-05-16T15:44:32.927Z,3.70
2019-05-16T15:47:08.315Z,3.90
2019-05-16T15:49:43.026Z,4.17
2019-05-16T15:52:17.958Z,4.13
2019-05-16T15:55:18.726Z,4.10
2019-05-16T15:58:07.481Z,3.37
2019-05-16T16:00:51.942Z,3.70
2019-05-16T16:03:37.970Z,3.70
2019-05-16T16:06:22.414Z,4.00
2019-05-16T16:09:10.884Z,4.07
2019-05-16T16:11:44.896Z,3.97
2019-05-16T16:14:17.534Z,3.90
2019-05-16T16:16:53.659Z,4.30
2019-05-16T16:19:28.214Z,4.28
2019-05-16T16:22:02.863Z,3.87
2019-05-16T16:24:35.456Z,4.13
2019-05-16T16:27:12.577Z,3.97
2019-05-16T16:29:48.097Z,4.10
2019-05-16T16:32:21.400Z,3.70
2019-05-16T16:34:57.344Z,4.30
2019-05-16T16:37:30.323Z,4.70
2019-05-16T16:40:09.981Z,4.13
2019-05-16T16:42:47.455Z,4.43
2019-05-16T16:45:31.616Z,4.00
2019-05-16T16:48:04.382Z,4.83
2019-05-16T16:50:41.856Z,4.80
2019-05-16T16:53:17.607Z,4.50
2019-05-16T16:55:51.040Z,3.80
2019-05-16T16:58:26.420Z,4.33
2019-05-16T17:01:02.545Z,4.17
2019-05-16T17:03:36.397Z,4.20
2019-05-16T17:06:17.706Z,4.12
2019-05-16T17:08:58.522Z,3.80
2019-05-16T17:11:31.487Z,4.00
2019-05-16T17:14:06.826Z,3.93
2019-05-16T17:16:40.478Z,3.70
2019-05-16T17:19:14.550Z,4.00
2019-05-16T17:22:02.051Z,4.03
2019-05-16T17:24:43.997Z,3.90
2019-05-16T17:27:20.661Z,4.20
2019-05-16T17:29:53.572Z,4.17
2019-05-16T17:32:28.095Z,3.80
2019-05-16T17:35:03.572Z,3.80
2019-05-16T17:37:37.633Z,3.70
2019-05-16T17:40:17.599Z,3.87
2019-05-16T17:43:01.194Z,3.50
2019-05-16T17:45:34.046Z,3.87
2019-05-16T17:48:07.498Z,4.30
2019-05-16T17:50:46.535Z,3.80
2019-05-16T17:53:21.558Z,3.67
2019-05-16T17:55:58.953Z,4.50
2019-05-16T17:58:41.745Z,3.97
2019-05-16T18:01:17.519Z,4.03
2019-05-16T18:03:50.620Z,3.90
2019-05-16T18:06:27.162Z,4.53
2019-05-16T18:09:17.692Z,3.80
2019-05-16T18:12:10.011Z,4.73
2019-05-16T18:15:17.419Z,4.63
2019-05-16T18:18:07.339Z,4.93
2019-05-16T18:20:55.918Z,5.07
2019-05-16T18:23:36.876Z,5.73
2019-05-16T18:26:13.007Z,5.67
2019-05-16T18:28:49.018Z,5.70
2019-05-16T18:31:23.037Z,6.97
2019-05-16T18:34:09.547Z,6.63
2019-05-16T18:36:46.672Z,7.57
2019-05-16T18:39:22.216Z,8.10
2019-05-16T18:42:00.641Z,7.47
2019-05-16T18:44:36.759Z,8.10
2019-05-16T18:47:17.410Z,8.20
2019-05-16T18:49:51.263Z,8.77
2019-05-16T18:52:26.481Z,7.87
2019-05-16T18:55:04.094Z,7.80
2019-05-16T18:57:39.373Z,7.47
2019-05-16T19:00:17.794Z,9.43
2019-05-16T19:02:51.741Z,9.93
2019-05-16T19:05:26.498Z,11.65
2019-05-16T19:08:09.102Z,12.07
2019-05-16T19:10:43.409Z,11.37
2019-05-16T19:13:17.860Z,11.07
2019-05-16T19:15:53.322Z,10.77
2019-05-16T19:18:30.353Z,12.13
2019-05-16T19:21:12.600Z,10.60
2019-05-16T19:23:49.234Z,9.20
2019-05-16T19:26:27.300Z,9.43
2019-05-16T19:29:06.473Z,9.27
2019-05-16T19:31:40.564Z,10.80
2019-05-16T19:34:16.276Z,10.90
2019-05-16T19:36:49.156Z,10.60
2019-05-16T19:39:26.037Z,9.83
2019-05-16T19:42:06.504Z,11.00
2019-05-16T19:44:40.095Z,11.27
2019-05-16T19:47:13.768Z,9.77
2019-05-16T19:49:49.356Z,10.30
2019-05-16T19:52:23.003Z,9.50
2019-05-16T19:54:59.572Z,9.47
2019-05-16T19:57:43.387Z,10.37
2019-05-16T20:00:19.887Z,9.50
2019-05-16T20:02:52.686Z,9.60
2019-05-16T20:05:26.672Z,10.60
2019-05-16T20:07:59.448Z,10.40
2019-05-16T20:10:32.932Z,9.80
2019-05-16T20:13:08.293Z,10.23
2019-05-16T20:15:41.722Z,11.30
2019-05-16T20:18:24.388Z,10.73
2019-05-16T20:20:57.654Z,11.83
2019-05-16T20:23:31.153Z,12.10
2019-05-16T20:26:08.006Z,12.70
2019-05-16T20:28:47.446Z,11.97
2019-05-16T20:31:22.283Z,14.10
2019-05-16T20:33:57.114Z,13.87
2019-05-16T20:36:31.444Z,14.20
2019-05-16T20:39:08.401Z,15.63
2019-05-16T20:41:41.310Z,15.13
2019-05-16T20:44:17.246Z,14.63
2019-05-16T20:46:50.148Z,16.60
2019-05-16T20:49:24.141Z,15.37
2019-05-16T20:51:58.618Z,15.93
2019-05-16T20:54:37.660Z,16.70
2019-05-16T20:57:17.105Z,16.30
2019-05-16T20:59:51.569Z,16.20
2019-05-16T21:02:27.005Z,17.98
2019-05-16T21:05:00.394Z,15.93
2019-05-16T21:07:37.168Z,14.67
2019-05-16T21:10:16.792Z,14.10
2019-05-16T21:12:51.222Z,15.07
2019-05-16T21:15:26.342Z,13.60
2019-05-16T21:17:59.880Z,14.60
2019-05-16T21:20:34.698Z,15.17
2019-05-16T21:23:09.671Z,14.63
2019-05-16T21:25:42.420Z,15.00
2019-05-16T21:28:19.723Z,15.90
2019-05-16T21:30:53.741Z,15.90
2019-05-16T21:33:27.432Z,17.27
2019-05-16T21:36:01.265Z,15.87
2019-05-16T21:38:36.524Z,15.93
2019-05-16T21:41:11.544Z,18.48
2019-05-16T21:43:46.952Z,16.33
2019-05-16T21:46:27.278Z,16.57
2019-05-16T21:49:01.026Z,19.17
2019-05-16T21:51:34.227Z,15.67
2019-05-16T21:54:18.196Z,18.98
2019-05-16T21:56:57.147Z,17.27
2019-05-16T21:59:31.099Z,16.40
2019-05-16T22:02:06.063Z,16.47
2019-05-16T22:04:39.198Z,16.27
2019-05-16T22:07:11.822Z,17.00
2019-05-16T22:09:47.061Z,16.70
2019-05-16T22:12:20.021Z,17.13
2019-05-16T22:14:56.972Z,20.25
2019-05-16T22:17:30.789Z,18.67
2019-05-16T22:20:04.012Z,21.65
2019-05-16T22:22:38.149Z,18.27
2019-05-16T22:25:16.764Z,21.35
2019-05-16T22:27:50.159Z,17.23
2019-05-16T22:30:23.129Z,19.33
2019-05-16T22:32:56.651Z,18.37
2019-05-16T22:35:30.469Z,17.57
2019-05-16T22:38:03.601Z,21.27
2019-05-16T22:40:39.464Z,18.63
2019-05-16T22:43:17.218Z,17.43
2019-05-16T22:45:52.007Z,17.50
2019-05-16T22:48:26.706Z,17.00
2019-05-16T22:50:59.794Z,17.97
2019-05-16T22:53:33.308Z,18.23
2019-05-16T22:56:07.404Z,21.13
2019-05-16T22:58:41.091Z,18.77
2019-05-16T23:01:17.586Z,19.67
2019-05-16T23:03:51.643Z,19.53
2019-05-16T23:06:26.914Z,19.97
2019-05-16T23:09:00.327Z,18.23
2019-05-16T23:11:33.290Z,22.35
2019-05-16T23:14:10.840Z,20.97
2019-05-16T23:16:47.247Z,18.93
2019-05-16T23:19:21.718Z,20.03
2019-05-16T23:21:56.699Z,19.00
2019-05-16T23:24:31.338Z,18.17
2019-05-16T23:27:06.953Z,21.37
2019-05-16T23:29:40.742Z,20.67
2019-05-16T23:32:15.313Z,17.80
2019-05-16T23:34:48.125Z,18.43
2019-05-16T23:37:23.304Z,17.27
2019-05-16T23:39:57.555Z,16.93
2019-05-16T23:42:30.045Z,16.90
2019-05-16T23:45:08.332Z,17.20
2019-05-16T23:47:43.197Z,16.47
2019-05-16T23:50:21.637Z,19.98
2019-05-16T23:52:56.218Z,17.27
2019-05-16T23:55:30.211Z,17.20
2019-05-16T23:58:06.687Z,17.43
